This is the latest recevied weather packets stored in our database for station/object IK3SVW-3. If no packets are shown the sender has not sent any weather packets the latest 10 day(s).
| Time | Temp. | Humidity | Pressure | Rain* | Wind** | Luminosity | Snow |
|---|---|---|---|---|---|---|---|
| 1777761481 | 17.22° C | 46% | 1019 hPa | 0 mm | - | - | - |
| 1777760804 | 17.78° C | 47% | 1019 hPa | 0 mm | - | - | - |
| 1777760144 | 17.78° C | 47% | 1019 hPa | 0 mm | - | - | - |
| 1777757877 | 17.78° C | 48% | 1019 hPa | 0 mm | - | - | - |
| 1777757206 | 18.33° C | 47% | 1019 hPa | 0 mm | - | - | - |
| 1777756547 | 18.33° C | 47% | 1019 hPa | 0 mm | - | - | - |
| 1777755886 | 18.33° C | 46% | 1019 hPa | 0 mm | - | - | - |
| 1777754264 | 18.89° C | 44% | 1019 hPa | 0 mm | - | - | - |
| 1777753610 | 19.44° C | 43% | 1019 hPa | 0 mm | - | - | - |
| 1777752945 | 19.44° C | 42% | 1019 hPa | 0 mm | - | - | - |
| 1777752286 | 19.44° C | 42% | 1019 hPa | 0 mm | - | - | - |
| 1777751988 | 20° C | 41% | 1019 hPa | 0 mm | - | - | - |
| 1777751324 | 20° C | 40% | 1019 hPa | 0 mm | - | - | - |
| 1777749344 | 20.56° C | 37% | 1019 hPa | 0 mm | - | - | - |
| 1777748686 | 20.56° C | 37% | 1019 hPa | 0 mm | - | - | - |
| 1777748386 | 20.56° C | 36% | 1019 hPa | 0 mm | - | - | - |
| 1777747724 | 21.11° C | 35% | 1019 hPa | 0 mm | - | - | - |
| 1777746404 | 21.67° C | 34% | 1019 hPa | 0 mm | - | - | - |
| 1777745085 | 22.22° C | 33% | 1019 hPa | 0 mm | - | - | - |
| 1777744786 | 22.22° C | 33% | 1019 hPa | 0 mm | - | - | - |
| 1777744125 | 22.22° C | 32% | 1019 hPa | 0 mm | - | - | - |
| 1777742149 | 23.89° C | 26% | 1019 hPa | 0 mm | - | - | - |
| 1777741486 | 24.44° C | 25% | 1019 hPa | 0 mm | - | - | - |
| 1777740543 | 25° C | 24% | 1019 hPa | 0 mm | - | - | - |
| 1777739212 | 25.56° C | 24% | 1019 hPa | 0 mm | - | - | - |
* Rain latest hour (hover to see other rain measurements)
** Current wind speed in m/s (hover to see current wind gust speed)